createdAt,value
2022-10-18T00:00:13.573Z,102437.22
2022-10-18T00:02:41.079Z,102435.78
2022-10-18T00:05:08.954Z,102436.75
2022-10-18T00:07:36.431Z,102433.75
2022-10-18T00:10:05.871Z,102439.31
2022-10-18T00:12:33.875Z,102436.38
2022-10-18T00:15:01.613Z,102434.06
2022-10-18T00:17:29.542Z,102436.84
2022-10-18T00:19:57.286Z,102430.31
2022-10-18T00:22:25.382Z,102429.16
2022-10-18T00:24:53.206Z,102435.84
2022-10-18T00:27:22.020Z,102424.38
2022-10-18T00:29:52.902Z,102424.53
2022-10-18T00:32:20.497Z,102430.59
2022-10-18T00:34:47.949Z,102425.34
2022-10-18T00:37:15.663Z,102430.13
2022-10-18T00:39:43.200Z,102437.00
2022-10-18T00:42:12.891Z,102439.13
2022-10-18T00:44:58.926Z,102441.25
2022-10-18T00:47:27.887Z,102440.28
2022-10-18T00:49:57.318Z,102443.88
2022-10-18T00:52:26.870Z,102448.94
2022-10-18T00:54:55.944Z,102443.03
2022-10-18T00:57:24.015Z,102444.66
2022-10-18T00:59:52.094Z,102447.28
2022-10-18T01:02:19.944Z,102447.91
2022-10-18T01:04:48.897Z,102451.34
2022-10-18T01:07:21.551Z,102452.53
2022-10-18T01:09:55.064Z,102458.91
2022-10-18T01:12:25.543Z,102452.00
2022-10-18T01:14:55.569Z,102465.78
2022-10-18T01:17:28.081Z,102459.88
2022-10-18T01:20:16.339Z,102459.88
2022-10-18T01:22:46.319Z,102462.81
2022-10-18T01:25:21.290Z,102463.47
2022-10-18T01:27:53.483Z,102460.84
2022-10-18T01:30:40.624Z,102462.16
2022-10-18T01:33:13.066Z,102467.22
2022-10-18T01:35:43.847Z,102470.66
2022-10-18T01:38:12.677Z,102473.44
2022-10-18T01:40:41.943Z,102465.56
2022-10-18T01:43:10.133Z,102462.75
2022-10-18T01:45:39.333Z,102468.31
2022-10-18T01:48:07.401Z,102461.44
2022-10-18T01:50:36.010Z,102461.38
2022-10-18T01:53:03.531Z,102464.50
2022-10-18T01:55:34.628Z,102462.03
2022-10-18T01:58:05.831Z,102464.50
2022-10-18T02:00:39.288Z,102473.06
2022-10-18T02:03:11.913Z,102471.41
2022-10-18T02:05:42.097Z,102470.22
2022-10-18T02:08:22.814Z,102476.78
2022-10-18T02:10:52.288Z,102471.31
2022-10-18T02:13:21.485Z,102471.81
2022-10-18T02:15:50.579Z,102474.09
2022-10-18T02:18:20.771Z,102475.41
2022-10-18T02:20:49.424Z,102476.63
2022-10-18T02:23:18.484Z,102483.25
2022-10-18T02:25:46.110Z,102484.63
2022-10-18T02:28:13.724Z,102486.41
2022-10-18T02:30:45.049Z,102478.41
2022-10-18T02:33:15.743Z,102479.63
2022-10-18T02:35:46.559Z,102479.25
2022-10-18T02:38:15.245Z,102464.97
2022-10-18T02:40:43.093Z,102472.59
2022-10-18T02:43:10.568Z,102476.53
2022-10-18T02:45:39.376Z,102478.16
2022-10-18T02:48:07.611Z,102476.84
2022-10-18T02:50:35.233Z,102481.72
2022-10-18T02:53:04.349Z,102483.00
2022-10-18T02:55:31.988Z,102483.81
2022-10-18T02:57:59.388Z,102477.41
2022-10-18T03:00:26.885Z,102477.84
2022-10-18T03:02:54.824Z,102479.94
2022-10-18T03:05:22.266Z,102474.56
2022-10-18T03:07:49.698Z,102483.38
2022-10-18T03:10:18.534Z,102482.88
2022-10-18T03:12:45.991Z,102478.16
2022-10-18T03:15:13.435Z,102475.38
2022-10-18T03:17:41.049Z,102479.50
2022-10-18T03:20:08.856Z,102476.19
2022-10-18T03:22:36.286Z,102465.03
2022-10-18T03:25:03.753Z,102464.59
2022-10-18T03:27:32.973Z,102470.81
2022-10-18T03:30:00.956Z,102403.28
2022-10-18T03:32:28.388Z,102484.00
2022-10-18T03:34:56.020Z,102489.94
2022-10-18T03:37:23.509Z,102491.72
2022-10-18T03:39:50.970Z,102482.66
2022-10-18T03:42:18.714Z,102493.03
2022-10-18T03:44:47.732Z,102488.13
2022-10-18T03:47:15.154Z,102496.97
2022-10-18T03:49:42.598Z,102500.03
2022-10-18T03:52:10.180Z,102498.66
2022-10-18T03:54:37.579Z,102494.56
2022-10-18T03:57:05.057Z,102491.72
2022-10-18T03:59:32.489Z,102480.41
2022-10-18T04:02:01.329Z,102485.38
2022-10-18T04:04:28.787Z,102484.91
2022-10-18T04:06:56.239Z,102476.38
2022-10-18T04:09:23.684Z,102477.72
2022-10-18T04:11:51.207Z,102478.25
2022-10-18T04:14:21.204Z,102473.22
2022-10-18T04:16:48.864Z,102477.66
2022-10-18T04:19:17.949Z,102486.16
2022-10-18T04:21:45.320Z,102477.31
2022-10-18T04:24:12.736Z,102477.47
2022-10-18T04:26:40.429Z,102479.59
2022-10-18T04:29:08.132Z,102473.97
2022-10-18T04:31:35.600Z,102475.09
2022-10-18T04:34:04.655Z,102481.00
2022-10-18T04:36:33.592Z,102472.56
2022-10-18T04:39:01.043Z,102471.88
2022-10-18T04:41:28.465Z,102471.88
2022-10-18T04:43:55.940Z,102479.59
2022-10-18T04:46:23.402Z,102478.91
2022-10-18T04:48:50.895Z,102481.69
2022-10-18T04:51:18.523Z,102490.97
2022-10-18T04:53:47.319Z,102492.25
2022-10-18T04:56:14.823Z,102488.72
2022-10-18T04:58:42.334Z,102492.34
2022-10-18T05:01:09.763Z,102487.59
2022-10-18T05:03:37.272Z,102496.28
2022-10-18T05:06:05.373Z,102497.94
2022-10-18T05:08:34.873Z,102501.66
2022-10-18T05:11:04.371Z,102506.41
2022-10-18T05:13:31.970Z,102498.06
2022-10-18T05:16:00.741Z,102499.66
2022-10-18T05:18:28.253Z,102420.84
2022-10-18T05:20:55.923Z,102507.28
2022-10-18T05:23:23.377Z,102514.44
2022-10-18T05:25:50.810Z,102521.25
2022-10-18T05:28:39.990Z,102520.72
2022-10-18T05:31:07.896Z,102519.75
2022-10-18T05:33:35.647Z,102529.25
2022-10-18T05:36:03.184Z,102529.03
2022-10-18T05:38:31.731Z,102524.16
2022-10-18T05:41:00.173Z,102525.13
2022-10-18T05:43:30.924Z,102525.97
2022-10-18T05:45:59.154Z,102537.13
2022-10-18T05:48:27.516Z,102528.16
2022-10-18T05:50:55.788Z,102534.28
2022-10-18T05:53:36.315Z,102528.84
2022-10-18T05:56:05.734Z,102532.16
2022-10-18T05:58:36.315Z,102557.88
2022-10-18T06:01:05.978Z,102487.28
2022-10-18T06:03:34.572Z,102553.66
2022-10-18T06:06:03.438Z,102550.34
2022-10-18T06:08:31.736Z,102550.81
2022-10-18T06:10:59.990Z,102564.59
2022-10-18T06:13:31.072Z,102563.75
2022-10-18T06:16:03.776Z,102567.34
2022-10-18T06:18:32.107Z,102570.25
2022-10-18T06:21:00.111Z,102568.88
2022-10-18T06:23:28.194Z,102575.75
2022-10-18T06:25:59.090Z,102582.41
2022-10-18T06:28:26.566Z,102583.59
2022-10-18T06:30:54.044Z,102589.41
2022-10-18T06:33:22.946Z,102592.88
2022-10-18T06:35:57.122Z,102593.81
2022-10-18T06:38:24.607Z,102597.25
2022-10-18T06:40:52.157Z,102598.34
2022-10-18T06:43:21.365Z,102603.59
2022-10-18T06:45:49.255Z,102608.13
2022-10-18T06:48:16.898Z,102609.78
2022-10-18T06:50:52.727Z,102619.00
2022-10-18T06:53:20.239Z,102618.88
2022-10-18T06:55:47.801Z,102617.91
2022-10-18T06:58:15.315Z,102626.44
2022-10-18T07:00:42.764Z,102621.47
2022-10-18T07:03:10.197Z,102626.44
2022-10-18T07:05:37.942Z,102632.22
2022-10-18T07:08:06.971Z,102634.84
2022-10-18T07:10:34.427Z,102629.19
2022-10-18T07:13:27.488Z,102625.47
2022-10-18T07:15:49.347Z,102614.59
2022-10-18T07:18:16.752Z,102628.78
2022-10-18T07:20:44.196Z,102632.22
2022-10-18T07:23:12.971Z,102639.00
2022-10-18T07:25:40.796Z,102639.97
2022-10-18T07:28:08.278Z,102648.50
2022-10-18T07:30:36.063Z,102637.59
2022-10-18T07:33:03.523Z,102643.09
2022-10-18T07:35:30.999Z,102653.75
2022-10-18T07:37:58.451Z,102652.59
2022-10-18T07:40:27.280Z,102651.25
2022-10-18T07:42:54.693Z,102654.66
2022-10-18T07:45:22.398Z,102639.56
2022-10-18T07:47:54.801Z,102648.88
2022-10-18T07:50:22.274Z,102663.63
2022-10-18T07:52:49.785Z,102673.13
2022-10-18T07:55:17.380Z,102676.25
2022-10-18T07:57:46.271Z,102672.91
2022-10-18T08:00:14.053Z,102676.22
2022-10-18T08:02:41.664Z,102678.56
2022-10-18T08:05:09.722Z,102671.84
2022-10-18T08:07:37.187Z,102671.25
2022-10-18T08:10:04.824Z,102670.66
2022-10-18T08:12:32.646Z,102678.94
2022-10-18T08:21:57.584Z,102675.69
2022-10-18T08:24:26.491Z,102677.16
2022-10-18T08:26:53.947Z,102674.34
2022-10-18T08:29:25.723Z,102680.97
2022-10-18T08:31:54.364Z,102670.19
2022-10-18T08:34:21.795Z,102671.84
2022-10-18T08:36:49.219Z,102671.84
2022-10-18T08:39:16.575Z,102684.19
2022-10-18T08:41:51.282Z,102684.19
2022-10-18T08:44:20.865Z,102687.22
2022-10-18T08:46:49.629Z,102689.38
2022-10-18T08:49:22.505Z,102677.50
2022-10-18T08:51:50.383Z,102689.22
2022-10-18T08:54:23.261Z,102683.25
2022-10-18T08:56:57.559Z,102688.44
2022-10-18T08:59:25.683Z,102686.03
2022-10-18T09:02:00.591Z,102692.19
2022-10-18T09:04:35.799Z,102683.88
2022-10-18T09:07:15.054Z,102688.53
2022-10-18T09:09:47.556Z,102690.09
2022-10-18T09:12:27.802Z,102656.19
2022-10-18T09:15:04.906Z,102706.81
2022-10-18T09:17:37.646Z,102706.28
2022-10-18T09:20:13.045Z,102708.81
2022-10-18T09:22:44.758Z,102715.56
2022-10-18T09:25:15.761Z,102710.69
2022-10-18T09:27:50.219Z,102717.06
2022-10-18T09:30:21.639Z,102709.94
2022-10-18T09:32:51.849Z,102716.81
2022-10-18T09:35:21.720Z,102714.16
2022-10-18T09:37:49.952Z,102704.97
2022-10-18T09:40:20.326Z,102720.41
2022-10-18T09:42:53.701Z,102720.84
2022-10-18T09:45:24.703Z,102726.81
2022-10-18T09:47:57.062Z,102722.88
2022-10-18T09:50:26.717Z,102729.75
2022-10-18T09:53:02.852Z,102727.22
2022-10-18T09:55:36.597Z,102732.19
2022-10-18T09:58:07.632Z,102736.19
2022-10-18T10:00:35.982Z,102740.91
2022-10-18T10:03:08.383Z,102740.56
2022-10-18T10:05:38.189Z,102746.81
2022-10-18T10:08:05.726Z,102750.19
2022-10-18T10:10:33.572Z,102750.84
2022-10-18T10:13:09.197Z,102755.84
2022-10-18T10:15:39.370Z,102759.97
2022-10-18T10:18:20.144Z,102759.03
2022-10-18T10:20:49.580Z,102756.78
2022-10-18T10:23:20.792Z,102763.41
2022-10-18T10:25:51.586Z,102763.06
2022-10-18T10:28:21.429Z,102767.66
2022-10-18T10:30:49.073Z,102769.31
2022-10-18T10:33:31.276Z,102775.47
2022-10-18T10:35:59.675Z,102774.28
2022-10-18T10:38:28.008Z,102769.59
2022-10-18T10:40:55.746Z,102776.81
2022-10-18T10:43:36.930Z,102784.88
2022-10-18T10:46:07.517Z,102782.72
2022-10-18T10:48:40.345Z,102785.34
2022-10-18T10:51:08.632Z,102788.16
2022-10-18T10:53:41.173Z,102778.56
2022-10-18T10:56:16.051Z,102780.91
2022-10-18T10:58:44.964Z,102781.50
2022-10-18T11:01:20.276Z,102782.41
2022-10-18T11:03:48.739Z,102787.50
2022-10-18T11:06:46.242Z,102780.59
2022-10-18T11:09:20.162Z,102777.31
2022-10-18T11:11:53.167Z,102785.22
2022-10-18T11:14:26.185Z,102792.13
2022-10-18T11:16:58.050Z,102785.22
2022-10-18T11:19:30.661Z,102795.13
2022-10-18T11:21:58.886Z,102798.91
2022-10-18T11:24:26.565Z,102796.16
2022-10-18T11:26:59.366Z,102788.41
2022-10-18T11:29:35.321Z,102795.19
2022-10-18T11:32:06.760Z,102799.97
2022-10-18T11:34:49.813Z,102803.06
2022-10-18T11:37:29.408Z,102808.00
2022-10-18T11:40:01.822Z,102797.81
2022-10-18T11:42:37.885Z,102796.84
2022-10-18T11:45:16.991Z,102797.66
2022-10-18T11:47:52.217Z,102795.81
2022-10-18T11:50:26.569Z,102799.28
2022-10-18T11:52:59.823Z,102802.09
2022-10-18T11:55:33.139Z,102801.44
2022-10-18T11:58:04.442Z,102799.94
2022-10-18T12:00:40.351Z,102803.06
2022-10-18T12:03:14.804Z,102800.09
2022-10-18T12:05:44.359Z,102803.06
2022-10-18T12:08:17.243Z,102795.34
2022-10-18T12:11:03.993Z,102792.88
2022-10-18T12:13:35.956Z,102791.91
2022-10-18T12:16:07.380Z,102786.78
2022-10-18T12:18:36.384Z,102790.22
2022-10-18T12:21:06.181Z,102778.84
2022-10-18T12:23:37.537Z,102775.41
2022-10-18T12:26:06.431Z,102771.63
2022-10-18T12:28:39.652Z,102778.16
2022-10-18T12:31:14.238Z,102773.53
2022-10-18T12:33:43.829Z,102763.00
2022-10-18T12:36:16.409Z,102777.16
2022-10-18T12:38:44.691Z,102771.41
2022-10-18T12:41:17.701Z,102765.81
2022-10-18T12:43:51.612Z,102766.97
2022-10-18T12:46:20.356Z,102764.47
2022-10-18T12:48:51.508Z,102768.31
2022-10-18T12:51:20.305Z,102764.50
2022-10-18T12:53:49.042Z,102771.09
2022-10-18T12:56:34.107Z,102771.78
2022-10-18T12:59:16.390Z,102769.00
2022-10-18T13:01:58.814Z,102766.00
2022-10-18T13:04:36.079Z,102761.69
2022-10-18T13:07:18.365Z,102763.16
2022-10-18T13:10:14.938Z,102756.59
2022-10-18T13:12:53.947Z,102750.13
2022-10-18T13:15:34.320Z,102753.78
2022-10-18T13:18:05.683Z,102755.25
2022-10-18T13:20:39.004Z,102750.69
2022-10-18T13:23:11.767Z,102767.31
2022-10-18T13:25:48.786Z,102756.44
2022-10-18T13:28:22.477Z,102766.13
2022-10-18T13:30:53.543Z,102762.50
2022-10-18T13:33:31.539Z,102764.22
2022-10-18T13:36:01.309Z,102766.50
2022-10-18T13:38:40.124Z,102766.00
2022-10-18T13:41:12.065Z,102767.47
2022-10-18T13:43:56.046Z,102766.38
2022-10-18T13:46:24.532Z,102760.59
2022-10-18T13:48:52.606Z,102765.56
2022-10-18T13:51:47.257Z,102773.47
2022-10-18T13:54:34.496Z,102768.81
2022-10-18T13:57:09.850Z,102772.78
2022-10-18T13:59:44.798Z,102766.19
2022-10-18T14:02:49.899Z,102779.03
2022-10-18T14:05:29.181Z,102767.84
2022-10-18T14:08:00.778Z,102771.13
2022-10-18T14:10:57.378Z,102775.41
2022-10-18T14:13:24.684Z,102773.13
2022-10-18T14:15:53.851Z,102769.47
2022-10-18T14:18:27.943Z,102777.56
2022-10-18T14:21:13.354Z,102775.75
2022-10-18T14:23:45.505Z,102780.72
2022-10-18T14:26:16.310Z,102782.00
2022-10-18T14:29:00.436Z,102785.47
2022-10-18T14:31:30.215Z,102788.13
2022-10-18T14:33:58.986Z,102793.81
2022-10-18T14:36:28.050Z,102787.06
2022-10-18T14:38:56.175Z,102782.13
2022-10-18T14:41:25.967Z,102791.66
2022-10-18T14:43:54.760Z,102781.31
2022-10-18T14:46:25.946Z,102789.19
2022-10-18T14:48:54.686Z,102792.50
2022-10-18T14:51:22.190Z,102791.81
2022-10-18T14:53:50.183Z,102788.53
2022-10-18T14:56:27.517Z,102780.47
2022-10-18T14:58:56.193Z,102787.22
2022-10-18T15:01:26.011Z,102789.00
2022-10-18T15:03:57.179Z,102797.22
2022-10-18T15:06:24.641Z,102800.34
2022-10-18T15:08:54.336Z,102788.16
2022-10-18T15:11:22.075Z,102792.91
2022-10-18T15:13:52.979Z,102797.19
2022-10-18T15:16:21.155Z,102802.09
2022-10-18T15:19:03.505Z,102802.91
2022-10-18T15:21:30.986Z,102796.00
2022-10-18T15:24:13.304Z,102795.69
2022-10-18T15:26:45.067Z,102759.25
2022-10-18T15:29:18.520Z,102779.19
2022-10-18T15:31:46.284Z,102786.06
2022-10-18T15:34:18.563Z,102800.47
2022-10-18T15:36:46.509Z,102801.47
2022-10-18T15:39:16.460Z,102799.81
2022-10-18T15:41:45.809Z,102804.94
2022-10-18T15:44:22.796Z,102798.66
2022-10-18T15:46:52.811Z,102787.78
2022-10-18T15:49:38.971Z,102787.47
2022-10-18T15:52:25.170Z,102790.56
2022-10-18T15:54:52.587Z,102784.63
2022-10-18T15:57:20.104Z,102795.78
2022-10-18T15:59:53.543Z,102789.00
2022-10-18T16:02:21.350Z,102785.84
2022-10-18T16:04:48.798Z,102787.13
2022-10-18T16:07:16.213Z,102789.69
2022-10-18T16:09:43.735Z,102786.88
2022-10-18T16:12:11.197Z,102800.03
2022-10-18T16:14:38.809Z,102797.47
2022-10-18T16:17:07.881Z,102797.13
2022-10-18T16:19:35.393Z,102792.47
2022-10-18T16:22:06.639Z,102795.03
2022-10-18T16:24:34.426Z,102792.72
2022-10-18T16:27:01.874Z,102778.56
2022-10-18T16:29:32.028Z,102795.03
2022-10-18T16:32:00.010Z,102794.31
2022-10-18T16:34:29.122Z,102799.50
2022-10-18T16:36:58.914Z,102798.41
2022-10-18T16:39:26.656Z,102808.56
2022-10-18T16:41:54.186Z,102806.38
2022-10-18T16:44:21.598Z,102810.56
2022-10-18T16:46:52.402Z,102813.34
2022-10-18T16:49:23.395Z,102816.25
2022-10-18T16:51:52.276Z,102811.75
2022-10-18T16:54:19.754Z,102818.78
2022-10-18T16:56:47.789Z,102821.13
2022-10-18T16:59:21.946Z,102824.03
2022-10-18T17:01:49.650Z,102821.72
2022-10-18T17:04:18.638Z,102823.81
2022-10-18T17:06:46.187Z,102826.84
2022-10-18T17:09:15.321Z,102830.91
2022-10-18T17:11:42.884Z,102829.53
2022-10-18T17:14:10.283Z,102839.78
2022-10-18T17:16:39.170Z,102837.56
2022-10-18T17:19:11.661Z,102839.78
2022-10-18T17:21:39.174Z,102836.66
2022-10-18T17:24:06.906Z,102840.50
2022-10-18T17:26:35.866Z,102841.06
2022-10-18T17:29:07.521Z,102843.81
2022-10-18T17:31:38.492Z,102844.00
2022-10-18T17:34:21.444Z,102851.31
2022-10-18T17:36:49.228Z,102853.38
2022-10-18T17:39:16.855Z,102848.56
2022-10-18T17:41:50.986Z,102843.59
2022-10-18T17:44:19.703Z,102842.78
2022-10-18T17:46:49.059Z,102847.34
2022-10-18T17:49:16.844Z,102840.31
2022-10-18T17:51:48.346Z,102846.09
2022-10-18T17:54:15.885Z,102843.75
2022-10-18T17:56:45.103Z,102850.53
2022-10-18T17:59:14.085Z,102863.34
2022-10-18T18:01:41.590Z,102866.13
2022-10-18T18:04:09.189Z,102872.31
2022-10-18T18:06:39.025Z,102871.06
2022-10-18T18:09:08.054Z,102874.09
2022-10-18T18:11:36.199Z,102871.75
2022-10-18T18:14:08.751Z,102866.66
2022-10-18T18:16:38.685Z,102860.16
2022-10-18T18:19:09.717Z,102868.56
2022-10-18T18:21:39.892Z,102866.47
2022-10-18T18:24:11.142Z,102871.00
2022-10-18T18:26:41.955Z,102866.72
2022-10-18T18:29:13.378Z,102861.09
2022-10-18T18:31:43.696Z,102865.91
2022-10-18T18:34:11.690Z,102861.75
2022-10-18T18:36:41.573Z,102865.75
2022-10-18T18:39:09.546Z,102855.22
2022-10-18T18:41:38.433Z,102877.56
2022-10-18T18:44:06.537Z,102883.75
2022-10-18T18:46:38.340Z,102886.66
2022-10-18T18:49:08.196Z,102887.03
2022-10-18T18:51:37.437Z,102890.50
2022-10-18T18:54:05.760Z,102893.22
2022-10-18T18:56:46.150Z,102891.84
2022-10-18T18:59:15.353Z,102885.22
2022-10-18T19:04:59.698Z,102889.31
2022-10-18T19:07:27.545Z,102881.75
2022-10-18T19:09:56.491Z,102876.09
2022-10-18T19:12:26.687Z,102877.19
2022-10-18T19:14:54.649Z,102881.56
2022-10-18T19:17:26.632Z,102878.53
2022-10-18T19:19:55.752Z,102877.16
2022-10-18T19:22:26.335Z,102878.22
2022-10-18T19:24:53.827Z,102880.13
2022-10-18T19:27:26.986Z,102880.25
2022-10-18T19:29:54.765Z,102890.31
2022-10-18T19:32:22.686Z,102884.50
2022-10-18T19:34:50.176Z,102891.75
2022-10-18T19:37:29.857Z,102886.66
2022-10-18T19:40:07.394Z,102874.72
2022-10-18T19:42:40.821Z,102881.72
2022-10-18T19:45:09.060Z,102882.91
2022-10-18T19:47:38.471Z,102881.25
2022-10-18T19:50:09.688Z,102883.44
2022-10-18T19:52:42.587Z,102881.34
2022-10-18T19:55:12.062Z,102882.94
2022-10-18T19:57:46.504Z,102877.78
2022-10-18T20:00:18.673Z,102884.84
2022-10-18T20:02:51.055Z,102884.78
2022-10-18T20:05:21.017Z,102886.56
2022-10-18T20:08:01.708Z,102882.81
2022-10-18T20:10:40.038Z,102886.91
2022-10-18T20:13:18.349Z,102885.47
2022-10-18T20:15:50.455Z,102882.63
2022-10-18T20:18:32.245Z,102894.72
2022-10-18T20:21:11.283Z,102887.16
2022-10-18T20:24:02.301Z,102887.84
2022-10-18T20:26:35.789Z,102890.59
2022-10-18T20:29:03.601Z,102887.97
2022-10-18T20:31:35.728Z,102889.03
2022-10-18T20:34:45.708Z,102884.78
2022-10-18T20:37:14.606Z,102886.13
2022-10-18T20:39:45.617Z,102883.03
2022-10-18T20:42:18.880Z,102891.22
2022-10-18T20:44:49.717Z,102886.53
2022-10-18T20:47:38.628Z,102883.31
2022-10-18T20:51:05.945Z,102886.16
2022-10-18T20:54:01.877Z,102884.41
2022-10-18T20:56:41.409Z,102881.13
2022-10-18T20:59:14.933Z,102875.78
2022-10-18T21:01:45.689Z,102873.78
2022-10-18T21:04:23.076Z,102869.06
2022-10-18T21:06:52.736Z,102872.28
2022-10-18T21:09:21.411Z,102880.81
2022-10-18T21:12:00.923Z,102874.38
2022-10-18T21:14:34.769Z,102874.53
2022-10-18T21:17:04.375Z,102876.66
2022-10-18T21:19:32.035Z,102875.69
2022-10-18T21:22:00.088Z,102879.13
2022-10-18T21:24:31.004Z,102879.50
2022-10-18T21:27:00.323Z,102882.34
2022-10-18T21:29:27.957Z,102887.81
2022-10-18T21:31:59.356Z,102884.59
2022-10-18T21:34:27.268Z,102888.16
2022-10-18T21:36:54.785Z,102884.00
2022-10-18T21:41:52.023Z,102877.75
2022-10-18T21:44:19.440Z,102882.00
2022-10-18T21:46:47.088Z,102888.16
2022-10-18T21:49:16.221Z,102878.81
2022-10-18T21:51:44.161Z,102884.03
2022-10-18T21:54:12.840Z,102885.91
2022-10-18T21:56:40.470Z,102888.88
2022-10-18T21:59:07.898Z,102875.97
2022-10-18T22:01:37.707Z,102867.56
2022-10-18T22:04:06.509Z,102866.13
2022-10-18T22:06:36.923Z,102868.06
2022-10-18T22:09:08.103Z,102867.22
2022-10-18T22:11:37.173Z,102860.34
2022-10-18T22:14:04.654Z,102861.28
2022-10-18T22:16:32.130Z,102864.97
2022-10-18T22:19:00.821Z,102858.53
2022-10-18T22:21:28.385Z,102858.91
2022-10-18T22:23:58.121Z,102857.97
2022-10-18T22:26:27.372Z,102859.63
2022-10-18T22:28:56.443Z,102857.38
2022-10-18T22:31:25.433Z,102856.53
2022-10-18T22:33:57.305Z,102861.97
2022-10-18T22:36:25.630Z,102861.25
2022-10-18T22:38:53.851Z,102870.97
2022-10-18T22:41:23.329Z,102867.56
2022-10-18T22:43:51.276Z,102865.16
2022-10-18T22:46:19.953Z,102868.09
2022-10-18T22:48:48.427Z,102863.84
2022-10-18T22:51:16.726Z,102859.47
2022-10-18T22:53:45.332Z,102857.94
2022-10-18T22:56:13.825Z,102856.63
2022-10-18T22:58:43.038Z,102855.78
2022-10-18T23:01:12.542Z,102848.81
2022-10-18T23:03:40.935Z,102854.97
2022-10-18T23:06:19.509Z,102851.75
2022-10-18T23:08:47.707Z,102854.47
2022-10-18T23:11:16.298Z,102849.41
2022-10-18T23:13:45.510Z,102850.47
2022-10-18T23:16:12.906Z,102842.03
2022-10-18T23:18:40.470Z,102840.50
2022-10-18T23:21:09.256Z,102838.84
2022-10-18T23:23:37.633Z,102844.81
2022-10-18T23:26:05.702Z,102841.28
2022-10-18T23:28:34.348Z,102855.75
2022-10-18T23:31:07.288Z,102849.78
2022-10-18T23:33:34.676Z,102856.06
2022-10-18T23:36:02.064Z,102852.00
2022-10-18T23:38:29.732Z,102854.50
2022-10-18T23:40:57.151Z,102852.72
2022-10-18T23:43:24.664Z,102864.91
2022-10-18T23:45:52.241Z,102860.91
2022-10-18T23:48:20.989Z,102855.69
2022-10-18T23:50:48.448Z,102858.41
2022-10-18T23:53:16.037Z,102854.97
2022-10-18T23:55:50.183Z,102862.16
2022-10-18T23:58:17.619Z,102862.38
